sensor_id;sensor_type;location;lat;lon;timestamp;pressure;altitude;pressure_sealevel;temperature;humidity
9839;BME280;4958;48.150;11.506;2024-02-21T00:00:11;95978.53;;;7.76;63.00
9839;BME280;4958;48.150;11.506;2024-02-21T00:02:37;95974.41;;;7.83;63.00
9839;BME280;4958;48.150;11.506;2024-02-21T00:05:04;95979.41;;;7.84;63.35
9839;BME280;4958;48.150;11.506;2024-02-21T00:07:34;95974.41;;;7.83;63.23
9839;BME280;4958;48.150;11.506;2024-02-21T00:10:00;95989.50;;;7.86;63.39
9839;BME280;4958;48.150;11.506;2024-02-21T00:12:29;95982.16;;;7.91;63.23
9839;BME280;4958;48.150;11.506;2024-02-21T00:14:56;95984.25;;;7.95;63.12
9839;BME280;4958;48.150;11.506;2024-02-21T00:17:23;95977.88;;;8.00;63.15
9839;BME280;4958;48.150;11.506;2024-02-21T00:19:51;95977.88;;;8.00;63.30
9839;BME280;4958;48.150;11.506;2024-02-21T00:22:23;95979.50;;;8.01;63.21
9839;BME280;4958;48.150;11.506;2024-02-21T00:24:53;95975.31;;;8.00;63.59
9839;BME280;4958;48.150;11.506;2024-02-21T00:27:20;95974.00;;;7.95;63.61
9839;BME280;4958;48.150;11.506;2024-02-21T00:29:46;95982.28;;;7.89;63.77
9839;BME280;4958;48.150;11.506;2024-02-21T00:32:12;96001.16;;;7.80;64.19
9839;BME280;4958;48.150;11.506;2024-02-21T00:34:43;96001.28;;;7.79;64.36
9839;BME280;4958;48.150;11.506;2024-02-21T00:37:09;96008.19;;;7.78;64.35
9839;BME280;4958;48.150;11.506;2024-02-21T00:39:39;96006.94;;;7.82;64.67
9839;BME280;4958;48.150;11.506;2024-02-21T00:42:05;96014.34;;;7.85;64.61
9839;BME280;4958;48.150;11.506;2024-02-21T00:44:36;96013.06;;;7.89;64.55
9839;BME280;4958;48.150;11.506;2024-02-21T00:47:03;96009.25;;;7.93;64.56
9839;BME280;4958;48.150;11.506;2024-02-21T00:49:30;96004.47;;;7.98;64.41
9839;BME280;4958;48.150;11.506;2024-02-21T00:51:57;95999.06;;;8.02;64.70
9839;BME280;4958;48.150;11.506;2024-02-21T00:54:24;95994.88;;;8.01;64.51
9839;BME280;4958;48.150;11.506;2024-02-21T00:56:51;95999.34;;;7.98;64.55
9839;BME280;4958;48.150;11.506;2024-02-21T00:59:18;96007.19;;;7.97;64.56
9839;BME280;4958;48.150;11.506;2024-02-21T01:01:47;96016.94;;;7.93;64.81
9839;BME280;4958;48.150;11.506;2024-02-21T01:04:17;95995.63;;;7.93;64.54
9839;BME280;4958;48.150;11.506;2024-02-21T01:06:50;96009.53;;;7.90;64.92
9839;BME280;4958;48.150;11.506;2024-02-21T01:09:18;95999.94;;;7.92;64.53
9839;BME280;4958;48.150;11.506;2024-02-21T01:11:46;95999.44;;;7.89;64.67
9839;BME280;4958;48.150;11.506;2024-02-21T01:14:16;95978.94;;;7.89;64.65
9839;BME280;4958;48.150;11.506;2024-02-21T01:16:43;95987.09;;;7.84;64.46
9839;BME280;4958;48.150;11.506;2024-02-21T01:19:11;95983.78;;;7.74;64.89
9839;BME280;4958;48.150;11.506;2024-02-21T01:21:39;95984.41;;;7.68;64.76
9839;BME280;4958;48.150;11.506;2024-02-21T01:24:05;95984.25;;;7.70;64.81
9839;BME280;4958;48.150;11.506;2024-02-21T01:26:36;95979.44;;;7.67;64.99
9839;BME280;4958;48.150;11.506;2024-02-21T01:29:06;95994.28;;;7.63;65.22
9839;BME280;4958;48.150;11.506;2024-02-21T01:31:34;95988.78;;;7.58;65.28
9839;BME280;4958;48.150;11.506;2024-02-21T01:34:03;96001.31;;;7.61;65.30
9839;BME280;4958;48.150;11.506;2024-02-21T01:36:29;95993.50;;;7.62;65.25
9839;BME280;4958;48.150;11.506;2024-02-21T01:38:56;95999.13;;;7.66;65.55
9839;BME280;4958;48.150;11.506;2024-02-21T01:41:22;96000.59;;;7.69;65.31
9839;BME280;4958;48.150;11.506;2024-02-21T01:43:50;95998.31;;;7.66;65.65
9839;BME280;4958;48.150;11.506;2024-02-21T01:46:17;95991.94;;;7.70;65.38
9839;BME280;4958;48.150;11.506;2024-02-21T01:48:44;95985.69;;;7.72;65.22
9839;BME280;4958;48.150;11.506;2024-02-21T01:51:11;95980.13;;;7.77;65.22
9839;BME280;4958;48.150;11.506;2024-02-21T01:53:43;95982.84;;;7.75;65.23
9839;BME280;4958;48.150;11.506;2024-02-21T01:56:10;95972.06;;;7.72;65.37
9839;BME280;4958;48.150;11.506;2024-02-21T01:58:38;95970.31;;;7.72;65.55
9839;BME280;4958;48.150;11.506;2024-02-21T02:01:08;95970.97;;;7.74;65.33
9839;BME280;4958;48.150;11.506;2024-02-21T02:03:34;95963.53;;;7.63;65.79
9839;BME280;4958;48.150;11.506;2024-02-21T02:06:05;95977.81;;;7.66;65.61
9839;BME280;4958;48.150;11.506;2024-02-21T02:08:32;95967.91;;;7.71;65.65
9839;BME280;4958;48.150;11.506;2024-02-21T02:10:59;95959.13;;;7.73;65.40
9839;BME280;4958;48.150;11.506;2024-02-21T02:13:26;95962.56;;;7.82;65.34
9839;BME280;4958;48.150;11.506;2024-02-21T02:15:52;95953.09;;;7.82;65.32
9839;BME280;4958;48.150;11.506;2024-02-21T02:18:20;95933.25;;;7.84;65.06
9839;BME280;4958;48.150;11.506;2024-02-21T02:20:47;95936.91;;;7.82;65.33
9839;BME280;4958;48.150;11.506;2024-02-21T02:23:22;95935.81;;;7.84;65.27
9839;BME280;4958;48.150;11.506;2024-02-21T02:25:52;95923.81;;;7.85;65.10
9839;BME280;4958;48.150;11.506;2024-02-21T02:28:19;95920.44;;;7.84;64.91
9839;BME280;4958;48.150;11.506;2024-02-21T02:30:46;95923.75;;;7.77;65.29
9839;BME280;4958;48.150;11.506;2024-02-21T02:33:12;95920.22;;;7.78;65.00
9839;BME280;4958;48.150;11.506;2024-02-21T02:35:39;95914.81;;;7.81;65.04
9839;BME280;4958;48.150;11.506;2024-02-21T02:38:06;95928.44;;;7.81;65.26
9839;BME280;4958;48.150;11.506;2024-02-21T02:40:34;95923.16;;;7.83;65.25
9839;BME280;4958;48.150;11.506;2024-02-21T02:43:01;95913.84;;;7.82;65.17
9839;BME280;4958;48.150;11.506;2024-02-21T02:45:28;95913.25;;;7.88;65.07
9839;BME280;4958;48.150;11.506;2024-02-21T02:47:55;95906.81;;;7.84;64.85
9839;BME280;4958;48.150;11.506;2024-02-21T02:50:22;95908.28;;;7.86;64.95
9839;BME280;4958;48.150;11.506;2024-02-21T02:52:49;95888.56;;;7.87;65.31
9839;BME280;4958;48.150;11.506;2024-02-21T02:55:15;95884.25;;;7.87;65.16
9839;BME280;4958;48.150;11.506;2024-02-21T02:57:46;95887.78;;;7.86;64.97
9839;BME280;4958;48.150;11.506;2024-02-21T03:00:13;95885.34;;;7.85;64.75
9839;BME280;4958;48.150;11.506;2024-02-21T03:02:42;95886.16;;;7.85;65.07
9839;BME280;4958;48.150;11.506;2024-02-21T03:05:13;95892.56;;;7.89;64.96
9839;BME280;4958;48.150;11.506;2024-02-21T03:07:47;95882.94;;;7.83;65.31
9839;BME280;4958;48.150;11.506;2024-02-21T03:10:14;95890.47;;;7.85;65.11
9839;BME280;4958;48.150;11.506;2024-02-21T03:12:41;95880.16;;;7.77;65.08
9839;BME280;4958;48.150;11.506;2024-02-21T03:15:10;95876.16;;;7.74;65.05
9839;BME280;4958;48.150;11.506;2024-02-21T03:17:36;95875.81;;;7.69;65.17
9839;BME280;4958;48.150;11.506;2024-02-21T03:20:05;95871.16;;;7.73;64.94
9839;BME280;4958;48.150;11.506;2024-02-21T03:22:34;95870.69;;;7.69;65.02
9839;BME280;4958;48.150;11.506;2024-02-21T03:25:03;95883.19;;;7.72;64.99
9839;BME280;4958;48.150;11.506;2024-02-21T03:27:30;95869.56;;;7.72;64.73
9839;BME280;4958;48.150;11.506;2024-02-21T03:29:57;95868.31;;;7.76;64.78
9839;BME280;4958;48.150;11.506;2024-02-21T03:32:25;95857.41;;;7.74;64.64
9839;BME280;4958;48.150;11.506;2024-02-21T03:34:52;95854.38;;;7.78;64.64
9839;BME280;4958;48.150;11.506;2024-02-21T03:37:19;95856.97;;;7.78;64.53
9839;BME280;4958;48.150;11.506;2024-02-21T03:39:46;95850.56;;;7.82;64.32
9839;BME280;4958;48.150;11.506;2024-02-21T03:42:12;95841.88;;;7.75;64.25
9839;BME280;4958;48.150;11.506;2024-02-21T03:44:39;95848.47;;;7.78;64.31
9839;BME280;4958;48.150;11.506;2024-02-21T03:47:05;95844.13;;;7.78;64.35
9839;BME280;4958;48.150;11.506;2024-02-21T03:49:33;95843.69;;;7.83;64.26
9839;BME280;4958;48.150;11.506;2024-02-21T03:51:59;95840.97;;;7.84;64.63
9839;BME280;4958;48.150;11.506;2024-02-21T03:54:26;95830.41;;;7.87;64.19
9839;BME280;4958;48.150;11.506;2024-02-21T03:56:55;95836.66;;;7.93;64.23
9839;BME280;4958;48.150;11.506;2024-02-21T03:59:22;95839.75;;;7.96;64.35
9839;BME280;4958;48.150;11.506;2024-02-21T04:01:51;95823.41;;;7.97;63.93
9839;BME280;4958;48.150;11.506;2024-02-21T04:04:17;95825.16;;;7.97;64.02
9839;BME280;4958;48.150;11.506;2024-02-21T04:06:48;95825.00;;;7.98;64.13
9839;BME280;4958;48.150;11.506;2024-02-21T04:09:15;95824.19;;;7.98;64.03
9839;BME280;4958;48.150;11.506;2024-02-21T04:11:43;95814.41;;;7.93;64.07
9839;BME280;4958;48.150;11.506;2024-02-21T04:14:10;95818.28;;;7.97;63.99
9839;BME280;4958;48.150;11.506;2024-02-21T04:16:37;95813.13;;;7.97;63.64
9839;BME280;4958;48.150;11.506;2024-02-21T04:19:04;95812.50;;;7.95;63.99
9839;BME280;4958;48.150;11.506;2024-02-21T04:21:39;95804.31;;;7.92;64.10
9839;BME280;4958;48.150;11.506;2024-02-21T04:24:07;95807.81;;;7.91;63.81
9839;BME280;4958;48.150;11.506;2024-02-21T04:26:34;95789.72;;;7.84;63.90
9839;BME280;4958;48.150;11.506;2024-02-21T04:29:00;95797.09;;;7.87;63.88
9839;BME280;4958;48.150;11.506;2024-02-21T04:31:27;95791.78;;;7.89;63.78
9839;BME280;4958;48.150;11.506;2024-02-21T04:33:53;95785.09;;;7.88;63.63
9839;BME280;4958;48.150;11.506;2024-02-21T04:36:19;95778.81;;;7.82;63.91
9839;BME280;4958;48.150;11.506;2024-02-21T04:38:46;95780.25;;;7.85;63.78
9839;BME280;4958;48.150;11.506;2024-02-21T04:41:14;95772.88;;;7.82;63.70
9839;BME280;4958;48.150;11.506;2024-02-21T04:43:40;95771.72;;;7.76;63.90
9839;BME280;4958;48.150;11.506;2024-02-21T04:46:07;95769.00;;;7.78;63.82
9839;BME280;4958;48.150;11.506;2024-02-21T04:48:33;95758.44;;;7.81;63.54
9839;BME280;4958;48.150;11.506;2024-02-21T04:50:59;95764.53;;;7.80;63.56
9839;BME280;4958;48.150;11.506;2024-02-21T04:53:26;95749.97;;;7.80;63.76
9839;BME280;4958;48.150;11.506;2024-02-21T04:55:52;95740.81;;;7.78;63.75
9839;BME280;4958;48.150;11.506;2024-02-21T04:58:20;95729.41;;;7.72;63.90
9839;BME280;4958;48.150;11.506;2024-02-21T05:00:50;95728.94;;;7.69;63.68
9839;BME280;4958;48.150;11.506;2024-02-21T05:03:19;95723.81;;;7.69;63.65
9839;BME280;4958;48.150;11.506;2024-02-21T05:05:46;95715.47;;;7.67;63.61
9839;BME280;4958;48.150;11.506;2024-02-21T05:08:13;95712.56;;;7.61;63.46
9839;BME280;4958;48.150;11.506;2024-02-21T05:10:39;95707.75;;;7.58;63.52
9839;BME280;4958;48.150;11.506;2024-02-21T05:13:06;95702.47;;;7.60;63.39
9839;BME280;4958;48.150;11.506;2024-02-21T05:15:33;95702.63;;;7.58;63.50
9839;BME280;4958;48.150;11.506;2024-02-21T05:18:02;95691.88;;;7.55;63.59
9839;BME280;4958;48.150;11.506;2024-02-21T05:20:28;95700.22;;;7.49;63.76
9839;BME280;4958;48.150;11.506;2024-02-21T05:22:55;95694.59;;;7.45;63.61
9839;BME280;4958;48.150;11.506;2024-02-21T05:25:21;95703.38;;;7.43;63.66
9839;BME280;4958;48.150;11.506;2024-02-21T05:27:47;95690.41;;;7.44;63.97
9839;BME280;4958;48.150;11.506;2024-02-21T05:30:18;95678.22;;;7.38;63.81
9839;BME280;4958;48.150;11.506;2024-02-21T05:32:47;95674.06;;;7.37;63.42
9839;BME280;4958;48.150;11.506;2024-02-21T05:35:14;95664.75;;;7.36;63.32
9839;BME280;4958;48.150;11.506;2024-02-21T05:37:41;95658.03;;;7.35;63.21
9839;BME280;4958;48.150;11.506;2024-02-21T05:40:10;95652.25;;;7.33;63.11
9839;BME280;4958;48.150;11.506;2024-02-21T05:42:38;95638.50;;;7.26;63.33
9839;BME280;4958;48.150;11.506;2024-02-21T05:45:05;95652.09;;;7.26;62.95
9839;BME280;4958;48.150;11.506;2024-02-21T05:47:32;95654.31;;;7.21;63.47
9839;BME280;4958;48.150;11.506;2024-02-21T05:50:00;95644.22;;;7.20;63.13
9839;BME280;4958;48.150;11.506;2024-02-21T05:52:26;95635.88;;;7.18;63.28
9839;BME280;4958;48.150;11.506;2024-02-21T05:54:53;95645.81;;;7.21;63.51
9839;BME280;4958;48.150;11.506;2024-02-21T05:57:20;95735.66;;;7.27;65.47
9839;BME280;4958;48.150;11.506;2024-02-21T05:59:48;95734.72;;;7.37;65.27
9839;BME280;4958;48.150;11.506;2024-02-21T06:02:14;95867.72;;;7.56;68.69
9839;BME280;4958;48.150;11.506;2024-02-21T06:04:41;95779.72;;;7.73;65.76
9839;BME280;4958;48.150;11.506;2024-02-21T06:07:10;95847.56;;;7.87;67.50
9839;BME280;4958;48.150;11.506;2024-02-21T06:09:37;95826.75;;;7.98;67.09
9839;BME280;4958;48.150;11.506;2024-02-21T06:12:03;95829.22;;;8.08;67.09
9839;BME280;4958;48.150;11.506;2024-02-21T06:14:30;95650.66;;;7.98;63.23
9839;BME280;4958;48.150;11.506;2024-02-21T06:16:56;95568.31;;;7.85;62.05
9839;BME280;4958;48.150;11.506;2024-02-21T06:19:23;95595.03;;;7.67;62.94
9839;BME280;4958;48.150;11.506;2024-02-21T06:21:49;95536.72;;;7.52;62.09
9839;BME280;4958;48.150;11.506;2024-02-21T06:24:17;95543.75;;;7.42;62.24
9839;BME280;4958;48.150;11.506;2024-02-21T06:26:43;95546.47;;;7.41;62.48
9839;BME280;4958;48.150;11.506;2024-02-21T06:29:11;95537.19;;;7.40;62.05
9839;BME280;4958;48.150;11.506;2024-02-21T06:31:38;95602.69;;;7.42;63.32
9839;BME280;4958;48.150;11.506;2024-02-21T06:34:05;95543.75;;;7.42;62.01
9839;BME280;4958;48.150;11.506;2024-02-21T06:36:31;95633.09;;;7.45;64.29
9839;BME280;4958;48.150;11.506;2024-02-21T06:38:58;95580.28;;;7.44;62.51
9839;BME280;4958;48.150;11.506;2024-02-21T06:41:26;95596.28;;;7.54;62.74
9839;BME280;4958;48.150;11.506;2024-02-21T06:43:52;95525.84;;;7.50;61.59
9839;BME280;4958;48.150;11.506;2024-02-21T06:46:25;95562.66;;;7.57;62.31
9839;BME280;4958;48.150;11.506;2024-02-21T06:48:52;95535.94;;;7.84;61.28
9839;BME280;4958;48.150;11.506;2024-02-21T06:51:19;95500.00;;;8.17;60.22
9839;BME280;4958;48.150;11.506;2024-02-21T06:53:45;95443.28;;;8.12;59.70
9839;BME280;4958;48.150;11.506;2024-02-21T06:56:12;95437.91;;;7.82;59.93
9839;BME280;4958;48.150;11.506;2024-02-21T06:58:39;95486.13;;;7.62;61.34
9839;BME280;4958;48.150;11.506;2024-02-21T07:01:06;95523.59;;;7.55;61.81
9839;BME280;4958;48.150;11.506;2024-02-21T07:03:33;95469.47;;;7.42;60.78
9839;BME280;4958;48.150;11.506;2024-02-21T07:05:59;95484.38;;;7.31;61.33
9839;BME280;4958;48.150;11.506;2024-02-21T07:08:28;95519.44;;;7.30;62.01
9839;BME280;4958;48.150;11.506;2024-02-21T07:10:54;95465.78;;;7.20;60.94
9839;BME280;4958;48.150;11.506;2024-02-21T07:13:21;95542.94;;;7.25;61.93
9839;BME280;4958;48.150;11.506;2024-02-21T07:15:51;95517.47;;;7.32;61.52
9839;BME280;4958;48.150;11.506;2024-02-21T07:18:17;95484.19;;;7.32;60.91
9839;BME280;4958;48.150;11.506;2024-02-21T07:20:44;95560.44;;;7.46;62.22
9839;BME280;4958;48.150;11.506;2024-02-21T07:23:10;95609.31;;;7.69;63.03
9839;BME280;4958;48.150;11.506;2024-02-21T07:25:36;95639.59;;;7.90;63.41
9839;BME280;4958;48.150;11.506;2024-02-21T07:28:03;95503.91;;;7.88;61.18
9839;BME280;4958;48.150;11.506;2024-02-21T07:30:30;95478.13;;;7.82;60.69
9839;BME280;4958;48.150;11.506;2024-02-21T07:32:58;95508.25;;;7.88;61.27
9839;BME280;4958;48.150;11.506;2024-02-21T07:35:25;95530.00;;;8.00;61.22
9839;BME280;4958;48.150;11.506;2024-02-21T07:37:51;95450.53;;;8.00;60.51
9839;BME280;4958;48.150;11.506;2024-02-21T07:40:18;95467.84;;;7.98;60.87
9839;BME280;4958;48.150;11.506;2024-02-21T07:42:44;95416.09;;;8.03;59.55
9839;BME280;4958;48.150;11.506;2024-02-21T07:45:11;95374.91;;;8.04;59.13
9839;BME280;4958;48.150;11.506;2024-02-21T07:47:37;95346.38;;;8.46;58.46
9839;BME280;4958;48.150;11.506;2024-02-21T07:50:11;95236.28;;;9.12;55.93
9839;BME280;4958;48.150;11.506;2024-02-21T07:52:42;95153.47;;;9.75;54.35
9839;BME280;4958;48.150;11.506;2024-02-21T07:55:11;95057.81;;;10.29;52.41
9839;BME280;4958;48.150;11.506;2024-02-21T07:57:43;95009.94;;;10.07;52.46
9839;BME280;4958;48.150;11.506;2024-02-21T08:03:18;95046.75;;;9.43;53.70
9839;BME280;4958;48.150;11.506;2024-02-21T08:06:28;95242.72;;;9.66;57.10
9839;BME280;4958;48.150;11.506;2024-02-21T08:09:12;95048.09;;;10.59;52.67
9839;BME280;4958;48.150;11.506;2024-02-21T08:15:07;94769.31;;;12.08;48.26
9839;BME280;4958;48.150;11.506;2024-02-21T08:17:53;94705.09;;;12.57;47.07
9839;BME280;4958;48.150;11.506;2024-02-21T08:21:02;94648.69;;;12.78;46.06
9839;BME280;4958;48.150;11.506;2024-02-21T08:23:41;94634.72;;;13.04;46.01
9839;BME280;4958;48.150;11.506;2024-02-21T08:26:20;94578.75;;;13.35;44.92
9839;BME280;4958;48.150;11.506;2024-02-21T08:29:04;94525.53;;;13.57;43.61
9839;BME280;4958;48.150;11.506;2024-02-21T08:32:05;94506.66;;;13.68;43.45
9839;BME280;4958;48.150;11.506;2024-02-21T08:34:32;94518.41;;;13.82;43.73
9839;BME280;4958;48.150;11.506;2024-02-21T08:37:07;94552.75;;;14.13;43.93
9839;BME280;4958;48.150;11.506;2024-02-21T08:39:37;94497.28;;;14.21;42.98
9839;BME280;4958;48.150;11.506;2024-02-21T08:42:08;94475.66;;;14.27;42.72
9839;BME280;4958;48.150;11.506;2024-02-21T08:44:51;94496.84;;;14.47;42.88
9839;BME280;4958;48.150;11.506;2024-02-21T08:47:18;94485.81;;;14.40;42.73
9839;BME280;4958;48.150;11.506;2024-02-21T08:49:55;94441.69;;;14.23;41.98
9839;BME280;4958;48.150;11.506;2024-02-21T09:14:19;94373.03;;;15.17;40.10
9839;BME280;4958;48.150;11.506;2024-02-21T09:17:12;94372.94;;;15.29;40.11
9839;BME280;4958;48.150;11.506;2024-02-21T09:20:09;94345.84;;;15.37;39.47
9839;BME280;4958;48.150;11.506;2024-02-21T09:23:03;94322.78;;;15.40;38.67
9839;BME280;4958;48.150;11.506;2024-02-21T09:26:32;94367.22;;;15.44;39.45
9839;BME280;4958;48.150;11.506;2024-02-21T09:29:25;94311.56;;;15.51;38.57
9839;BME280;4958;48.150;11.506;2024-02-21T09:32:21;94278.63;;;15.52;38.44
9839;BME280;4958;48.150;11.506;2024-02-21T09:35:34;94265.81;;;15.45;38.06
9839;BME280;4958;48.150;11.506;2024-02-21T09:38:52;94275.88;;;15.42;38.42
9839;BME280;4958;48.150;11.506;2024-02-21T09:41:29;94284.41;;;15.37;38.42
9839;BME280;4958;48.150;11.506;2024-02-21T09:44:17;94295.31;;;15.39;38.43
9839;BME280;4958;48.150;11.506;2024-02-21T09:47:05;94318.41;;;15.41;38.93
9839;BME280;4958;48.150;11.506;2024-02-21T09:49:45;94299.78;;;15.44;39.00
9839;BME280;4958;48.150;11.506;2024-02-21T09:52:28;94290.38;;;15.38;38.32
9839;BME280;4958;48.150;11.506;2024-02-21T09:55:17;94291.44;;;15.42;38.47
9839;BME280;4958;48.150;11.506;2024-02-21T09:58:02;94309.44;;;15.48;39.05
9839;BME280;4958;48.150;11.506;2024-02-21T10:00:31;94332.56;;;15.50;38.97
9839;BME280;4958;48.150;11.506;2024-02-21T10:03:22;94324.31;;;15.70;38.85
9839;BME280;4958;48.150;11.506;2024-02-21T10:06:11;94308.56;;;15.76;38.78
9839;BME280;4958;48.150;11.506;2024-02-21T10:08:52;94267.75;;;15.72;38.34
9839;BME280;4958;48.150;11.506;2024-02-21T10:11:30;94277.53;;;15.65;38.51
9839;BME280;4958;48.150;11.506;2024-02-21T10:14:09;94281.75;;;15.71;38.58
9839;BME280;4958;48.150;11.506;2024-02-21T10:16:48;94296.97;;;15.84;38.57
9839;BME280;4958;48.150;11.506;2024-02-21T10:23:02;94268.34;;;15.79;38.24
9839;BME280;4958;48.150;11.506;2024-02-21T10:26:07;94285.06;;;15.66;38.71
9839;BME280;4958;48.150;11.506;2024-02-21T10:28:37;94279.66;;;15.68;38.50
9839;BME280;4958;48.150;11.506;2024-02-21T10:31:10;94294.66;;;15.66;38.57
9839;BME280;4958;48.150;11.506;2024-02-21T10:33:37;94262.59;;;15.55;38.63
9839;BME280;4958;48.150;11.506;2024-02-21T10:36:08;94270.72;;;15.59;38.65
9839;BME280;4958;48.150;11.506;2024-02-21T10:38:37;94247.22;;;15.32;39.00
9839;BME280;4958;48.150;11.506;2024-02-21T10:41:05;94269.16;;;15.24;39.00
9839;BME280;4958;48.150;11.506;2024-02-21T10:43:37;94257.75;;;15.25;38.83
9839;BME280;4958;48.150;11.506;2024-02-21T10:46:06;94270.56;;;15.32;39.16
9839;BME280;4958;48.150;11.506;2024-02-21T10:48:43;94281.47;;;15.50;39.07
9839;BME280;4958;48.150;11.506;2024-02-21T10:51:15;94222.34;;;15.52;38.36
9839;BME280;4958;48.150;11.506;2024-02-21T10:53:50;94209.47;;;15.58;38.42
9839;BME280;4958;48.150;11.506;2024-02-21T10:56:28;94230.88;;;15.70;38.92
9839;BME280;4958;48.150;11.506;2024-02-21T10:58:57;94143.50;;;15.53;37.78
9839;BME280;4958;48.150;11.506;2024-02-21T11:01:24;94149.09;;;15.45;37.91
9839;BME280;4958;48.150;11.506;2024-02-21T11:03:53;94157.03;;;15.56;37.66
9839;BME280;4958;48.150;11.506;2024-02-21T11:06:22;94140.34;;;15.51;37.83
9839;BME280;4958;48.150;11.506;2024-02-21T11:09:00;94100.91;;;15.49;36.85
9839;BME280;4958;48.150;11.506;2024-02-21T11:11:28;94118.75;;;15.46;37.41
9839;BME280;4958;48.150;11.506;2024-02-21T11:14:03;94083.59;;;15.55;36.83
9839;BME280;4958;48.150;11.506;2024-02-21T11:16:35;94091.50;;;15.65;37.09
9839;BME280;4958;48.150;11.506;2024-02-21T11:19:06;94034.09;;;15.57;36.33
9839;BME280;4958;48.150;11.506;2024-02-21T11:21:33;93972.69;;;15.40;35.99
9839;BME280;4958;48.150;11.506;2024-02-21T11:24:02;93996.84;;;15.46;36.38
9839;BME280;4958;48.150;11.506;2024-02-21T11:26:29;94011.56;;;15.62;36.45
9839;BME280;4958;48.150;11.506;2024-02-21T11:28:57;93905.78;;;15.42;35.16
9839;BME280;4958;48.150;11.506;2024-02-21T11:31:25;93919.75;;;15.36;35.64
9839;BME280;4958;48.150;11.506;2024-02-21T11:33:53;93905.91;;;15.26;35.46
9839;BME280;4958;48.150;11.506;2024-02-21T11:36:24;93932.13;;;15.29;35.58
9839;BME280;4958;48.150;11.506;2024-02-21T11:38:50;93905.19;;;15.30;35.40
9839;BME280;4958;48.150;11.506;2024-02-21T11:41:19;93889.44;;;15.10;35.53
9839;BME280;4958;48.150;11.506;2024-02-21T11:43:48;93921.03;;;15.07;35.51
9839;BME280;4958;48.150;11.506;2024-02-21T11:46:14;93908.13;;;15.12;35.39
9839;BME280;4958;48.150;11.506;2024-02-21T11:48:41;93889.38;;;15.00;35.44
9839;BME280;4958;48.150;11.506;2024-02-21T11:51:09;93887.44;;;14.90;35.65
9839;BME280;4958;48.150;11.506;2024-02-21T11:53:36;93901.47;;;14.94;35.96
9839;BME280;4958;48.150;11.506;2024-02-21T11:56:04;93923.06;;;15.00;36.14
9839;BME280;4958;48.150;11.506;2024-02-21T11:58:33;93928.97;;;14.95;36.22
9839;BME280;4958;48.150;11.506;2024-02-21T12:01:00;93903.66;;;15.07;35.61
9839;BME280;4958;48.150;11.506;2024-02-21T12:03:28;93904.03;;;15.16;35.53
9839;BME280;4958;48.150;11.506;2024-02-21T12:05:54;93853.75;;;15.17;35.46
9839;BME280;4958;48.150;11.506;2024-02-21T12:08:22;93854.09;;;15.31;35.37
9839;BME280;4958;48.150;11.506;2024-02-21T12:10:48;93846.72;;;15.49;35.13
9839;BME280;4958;48.150;11.506;2024-02-21T12:13:16;93802.91;;;15.53;34.56
9839;BME280;4958;48.150;11.506;2024-02-21T12:15:47;93764.06;;;15.58;34.00
9839;BME280;4958;48.150;11.506;2024-02-21T12:18:14;93783.06;;;15.69;34.48
9839;BME280;4958;48.150;11.506;2024-02-21T12:20:40;93709.09;;;15.66;33.45
9839;BME280;4958;48.150;11.506;2024-02-21T12:23:09;93743.66;;;15.77;33.96
9839;BME280;4958;48.150;11.506;2024-02-21T12:25:35;93732.81;;;15.90;33.83
9839;BME280;4958;48.150;11.506;2024-02-21T12:28:01;93710.00;;;16.02;33.54
9839;BME280;4958;48.150;11.506;2024-02-21T12:30:29;93626.94;;;16.02;32.52
9839;BME280;4958;48.150;11.506;2024-02-21T12:32:59;93607.19;;;15.86;32.49
9839;BME280;4958;48.150;11.506;2024-02-21T12:35:32;93583.31;;;15.84;32.02
9839;BME280;4958;48.150;11.506;2024-02-21T12:38:02;93618.09;;;16.03;32.75
9839;BME280;4958;48.150;11.506;2024-02-21T12:40:30;93600.72;;;15.99;32.36
9839;BME280;4958;48.150;11.506;2024-02-21T12:42:58;93604.88;;;16.10;32.29
9839;BME280;4958;48.150;11.506;2024-02-21T12:45:25;93585.41;;;16.12;32.26
9839;BME280;4958;48.150;11.506;2024-02-21T12:54:58;93547.53;;;15.96;31.85
9839;BME280;4958;48.150;11.506;2024-02-21T12:57:47;93546.47;;;15.87;31.84
9839;BME280;4958;48.150;11.506;2024-02-21T13:21:36;93504.44;;;15.90;31.69
9839;BME280;4958;48.150;11.506;2024-02-21T13:51:33;93501.06;;;15.84;32.27
9839;BME280;4958;48.150;11.506;2024-02-21T13:58:04;93450.97;;;15.84;31.77
9839;BME280;4958;48.150;11.506;2024-02-21T14:01:15;93457.72;;;15.95;32.03
9839;BME280;4958;48.150;11.506;2024-02-21T14:03:59;93465.22;;;16.07;32.11
9839;BME280;4958;48.150;11.506;2024-02-21T14:07:09;93437.19;;;16.09;31.72
9839;BME280;4958;48.150;11.506;2024-02-21T14:09:50;93467.81;;;16.12;32.23
9839;BME280;4958;48.150;11.506;2024-02-21T14:14:59;93453.53;;;16.04;32.08
9839;BME280;4958;48.150;11.506;2024-02-21T14:21:06;93465.22;;;16.02;32.60
9839;BME280;4958;48.150;11.506;2024-02-21T14:23:52;93466.03;;;15.92;32.55
9839;BME280;4958;48.150;11.506;2024-02-21T14:26:22;93488.63;;;15.97;32.82
9839;BME280;4958;48.150;11.506;2024-02-21T14:28:56;93457.47;;;15.97;32.29
9839;BME280;4958;48.150;11.506;2024-02-21T14:31:46;93476.13;;;16.04;33.29
9839;BME280;4958;48.150;11.506;2024-02-21T14:34:32;93435.91;;;16.06;32.37
9839;BME280;4958;48.150;11.506;2024-02-21T14:37:17;93445.75;;;16.04;32.50
9839;BME280;4958;48.150;11.506;2024-02-21T14:39:59;93440.56;;;16.09;32.33
9839;BME280;4958;48.150;11.506;2024-02-21T14:42:39;93393.63;;;15.96;32.08
9839;BME280;4958;48.150;11.506;2024-02-21T14:45:35;93419.06;;;15.88;32.58
9839;BME280;4958;48.150;11.506;2024-02-21T14:48:13;93415.94;;;15.81;32.22
9839;BME280;4958;48.150;11.506;2024-02-21T14:50:56;93423.50;;;15.68;32.45
9839;BME280;4958;48.150;11.506;2024-02-21T14:53:45;93460.84;;;15.62;33.34
9839;BME280;4958;48.150;11.506;2024-02-21T14:56:39;93490.41;;;15.61;33.58
9839;BME280;4958;48.150;11.506;2024-02-21T14:59:20;93442.91;;;15.50;33.05
9839;BME280;4958;48.150;11.506;2024-02-21T15:02:21;93455.63;;;15.46;32.93
9839;BME280;4958;48.150;11.506;2024-02-21T15:08:00;93477.38;;;15.40;33.29
9839;BME280;4958;48.150;11.506;2024-02-21T15:10:42;93513.97;;;15.39;33.83
9839;BME280;4958;48.150;11.506;2024-02-21T15:16:33;93553.84;;;15.28;34.51
9839;BME280;4958;48.150;11.506;2024-02-21T15:19:20;93577.41;;;15.16;34.75
9839;BME280;4958;48.150;11.506;2024-02-21T15:22:22;93565.47;;;15.10;34.86
9839;BME280;4958;48.150;11.506;2024-02-21T15:25:24;93586.16;;;15.05;35.07